Time;durP1;ratioP1;P1;durP2;ratioP2;P2;SDS_P1;SDS_P2;PMS_P1;PMS_P2;Temp;Humidity;BMP_temperature;BMP_pressure;BME280_temperature;BME280_humidity;BME280_pressure;Samples;Min_cycle;Max_cycle;Signal;HPM_P1;HPM_P2
2021/04/07 00:02:07;;;;;;;0.73;0.47;;;20.70;40.00;;;;;;5131357;27;20387;-37
2021/04/07 00:04:35;;;;;;;0.63;0.50;;;20.70;40.00;;;;;;5130008;27;20047;-37
2021/04/07 00:07:02;;;;;;;0.52;0.50;;;20.70;40.00;;;;;;5129855;27;20039;-37
2021/04/07 00:09:29;;;;;;;0.60;0.43;;;20.70;40.00;;;;;;5131276;27;20108;-37
2021/04/07 00:11:56;;;;;;;0.40;0.30;;;20.70;40.00;;;;;;5132261;27;20054;-38
2021/04/07 00:14:24;;;;;;;1.20;0.73;;;20.70;40.00;;;;;;5133570;27;20049;-37
2021/04/07 00:16:51;;;;;;;0.52;0.40;;;20.70;40.00;;;;;;5131773;28;20047;-38
2021/04/07 00:19:17;;;;;;;0.52;0.40;;;20.70;40.00;;;;;;5132555;27;20054;-37
2021/04/07 00:21:44;;;;;;;0.90;0.50;;;20.70;40.00;;;;;;5131236;27;20047;-37
2021/04/07 00:24:11;;;;;;;0.68;0.55;;;20.70;40.00;;;;;;5114249;28;20067;-38
2021/04/07 00:26:38;;;;;;;0.88;0.50;;;20.70;40.00;;;;;;5131466;27;20043;-38
2021/04/07 00:29:05;;;;;;;0.50;0.50;;;20.70;40.00;;;;;;5133847;27;20055;-37
2021/04/07 00:31:31;;;;;;;0.52;0.40;;;20.70;40.00;;;;;;5124059;27;20074;-37
2021/04/07 00:33:58;;;;;;;0.65;0.40;;;20.70;40.00;;;;;;5135400;27;20043;-38
2021/04/07 00:36:25;;;;;;;1.10;0.65;;;20.70;40.00;;;;;;5135288;27;20040;-37
2021/04/07 00:38:52;;;;;;;0.93;0.40;;;20.70;40.00;;;;;;5118084;27;20478;-38
2021/04/07 00:41:18;;;;;;;0.55;0.40;;;20.70;40.00;;;;;;5117170;27;20456;-38
2021/04/07 00:43:45;;;;;;;0.90;0.50;;;20.70;40.00;;;;;;5134960;27;20473;-37
2021/04/07 00:46:11;;;;;;;0.82;0.60;;;20.70;40.00;;;;;;5118152;27;20047;-38
2021/04/07 00:48:38;;;;;;;1.35;0.40;;;20.70;40.00;;;;;;5136125;27;20134;-38
2021/04/07 00:51:05;;;;;;;0.93;0.60;;;20.70;40.00;;;;;;5125672;27;20117;-40
2021/04/07 00:53:32;;;;;;;1.85;0.60;;;20.70;40.00;;;;;;5129158;27;20074;-38
2021/04/07 00:55:59;;;;;;;0.85;0.60;;;20.70;40.00;;;;;;5135405;27;20047;-38
2021/04/07 00:58:26;;;;;;;0.77;0.52;;;20.70;40.00;;;;;;5130428;27;20040;-37
2021/04/07 01:00:54;;;;;;;0.93;0.60;;;20.70;40.00;;;;;;5119785;27;20040;-37
2021/04/07 01:03:21;;;;;;;1.42;0.65;;;20.70;40.00;;;;;;5119751;27;20050;-38
2021/04/07 01:05:48;;;;;;;0.82;0.50;;;20.70;40.00;;;;;;5120313;27;20471;-38
2021/04/07 01:08:15;;;;;;;0.77;0.50;;;20.70;40.00;;;;;;5135588;27;20051;-37
2021/04/07 01:10:42;;;;;;;0.60;0.45;;;20.70;40.00;;;;;;5118764;27;20044;-38
2021/04/07 01:13:08;;;;;;;0.88;0.52;;;20.70;40.00;;;;;;5120789;27;20055;-37
2021/04/07 01:15:35;;;;;;;0.70;0.50;;;20.70;40.00;;;;;;5121082;27;20195;-37
2021/04/07 01:18:02;;;;;;;0.82;0.50;;;20.70;40.00;;;;;;5129836;27;20043;-38
2021/04/07 01:20:29;;;;;;;0.68;0.43;;;20.70;40.00;;;;;;5126059;27;20040;-37
2021/04/07 01:23:00;;;;;;;0.38;0.30;;;20.70;40.00;;;;;;5120466;27;20047;-37
2021/04/07 01:25:27;;;;;;;0.80;0.52;;;20.70;40.00;;;;;;5120818;27;20493;-37
2021/04/07 01:27:55;;;;;;;0.60;0.60;;;20.70;40.00;;;;;;5120694;27;20511;-38
2021/04/07 01:30:22;;;;;;;0.57;0.40;;;20.70;40.00;;;;;;5123309;27;20075;-37
2021/04/07 01:32:49;;;;;;;0.88;0.50;;;20.70;40.00;;;;;;5117028;27;20108;-37
2021/04/07 01:35:18;;;;;;;0.52;0.40;;;20.70;40.00;;;;;;5116398;27;20130;-37
2021/04/07 01:37:45;;;;;;;0.70;0.47;;;20.70;40.00;;;;;;5134916;27;20044;-37
2021/04/07 01:40:14;;;;;;;0.40;0.40;;;20.70;40.00;;;;;;5133988;27;20047;-37
2021/04/07 01:42:43;;;;;;;0.80;0.40;;;20.70;40.00;;;;;;5136067;27;20051;-37
2021/04/07 01:45:11;;;;;;;1.42;0.43;;;20.70;40.00;;;;;;5134546;27;20043;-37
2021/04/07 01:47:39;;;;;;;1.20;0.60;;;20.70;40.00;;;;;;5127210;27;20039;-37
2021/04/07 01:50:07;;;;;;;0.75;0.57;;;20.70;40.00;;;;;;5126909;27;20490;-37
2021/04/07 01:52:34;;;;;;;0.80;0.60;;;20.70;40.00;;;;;;5116328;27;20073;-37
2021/04/07 01:55:01;;;;;;;0.40;0.38;;;20.70;40.00;;;;;;5134704;27;20066;-37
2021/04/07 01:57:27;;;;;;;0.50;0.40;;;20.70;40.00;;;;;;5134489;27;20096;-37
2021/04/07 01:59:54;;;;;;;0.95;0.50;;;20.70;40.00;;;;;;5131905;27;20043;-38
2021/04/07 02:02:21;;;;;;;0.82;0.52;;;20.70;40.00;;;;;;5116752;27;20070;-38
2021/04/07 02:04:48;;;;;;;0.38;0.30;;;20.70;40.00;;;;;;5133403;27;20092;-37
2021/04/07 02:07:16;;;;;;;0.90;0.50;;;20.70;40.00;;;;;;5116042;27;20051;-37
2021/04/07 02:09:43;;;;;;;0.50;0.30;;;20.70;40.00;;;;;;5134864;27;20100;-38
2021/04/07 02:12:12;;;;;;;0.70;0.40;;;20.70;40.00;;;;;;5134612;27;20047;-37
2021/04/07 02:14:39;;;;;;;0.47;0.47;;;20.70;40.00;;;;;;5112283;27;20392;-37
2021/04/07 02:17:06;;;;;;;0.77;0.50;;;20.70;40.00;;;;;;5112521;27;20047;-37
2021/04/07 02:19:34;;;;;;;0.47;0.40;;;20.70;40.00;;;;;;5110169;28;20036;-37
2021/04/07 02:22:16;;;;;;;1.25;0.50;;;20.70;40.00;;;;;;5112094;27;20101;-38
2021/04/07 02:24:45;;;;;;;0.50;0.50;;;20.70;40.00;;;;;;5112557;28;20039;-38
2021/04/07 02:27:13;;;;;;;0.60;0.40;;;20.70;40.00;;;;;;5112117;27;20048;-37
2021/04/07 02:29:41;;;;;;;1.02;0.50;;;20.70;40.00;;;;;;5110888;27;20051;-37
2021/04/07 02:32:08;;;;;;;0.50;0.38;;;20.70;40.00;;;;;;5113361;27;20048;-38
2021/04/07 02:34:36;;;;;;;0.68;0.40;;;20.70;40.10;;;;;;5111374;28;20138;-38
2021/04/07 02:37:03;;;;;;;0.47;0.40;;;20.70;40.00;;;;;;5112028;28;20376;-38
2021/04/07 02:39:30;;;;;;;0.57;0.40;;;20.70;40.00;;;;;;5110710;28;20047;-38
2021/04/07 02:41:57;;;;;;;0.50;0.30;;;20.70;40.10;;;;;;5113114;27;20039;-37
2021/04/07 02:44:23;;;;;;;0.52;0.50;;;20.70;40.00;;;;;;5111574;27;20086;-38
2021/04/07 02:46:50;;;;;;;0.88;0.57;;;20.70;40.10;;;;;;5110743;27;20044;-37
2021/04/07 02:49:17;;;;;;;0.75;0.60;;;20.70;40.00;;;;;;5109866;28;20051;-37
2021/04/07 02:51:44;;;;;;;0.65;0.50;;;20.70;40.00;;;;;;5110464;28;20059;-37
2021/04/07 02:54:11;;;;;;;0.63;0.50;;;20.70;40.00;;;;;;5111733;27;20044;-37
2021/04/07 02:56:37;;;;;;;0.32;0.32;;;20.70;40.00;;;;;;5111625;27;20039;-37
2021/04/07 02:59:04;;;;;;;0.47;0.40;;;20.70;40.00;;;;;;5112970;27;20202;-37
2021/04/07 03:01:31;;;;;;;1.05;0.50;;;20.70;40.00;;;;;;5112399;28;20098;-37
2021/04/07 03:03:59;;;;;;;0.60;0.50;;;20.60;40.00;;;;;;5112989;27;20048;-38
2021/04/07 03:06:26;;;;;;;1.15;0.40;;;20.70;40.00;;;;;;5096777;28;20106;-38
2021/04/07 03:08:53;;;;;;;1.05;0.60;;;20.70;40.00;;;;;;5107481;28;20491;-37
2021/04/07 03:11:19;;;;;;;0.35;0.35;;;20.70;40.00;;;;;;5112631;27;20082;-38
2021/04/07 03:13:46;;;;;;;0.93;0.50;;;20.60;40.00;;;;;;5122832;27;20190;-38
2021/04/07 03:16:13;;;;;;;0.68;0.40;;;20.60;40.00;;;;;;5131613;27;20073;-38
2021/04/07 03:18:40;;;;;;;0.77;0.50;;;20.60;40.00;;;;;;5132823;27;20115;-37
2021/04/07 03:21:07;;;;;;;1.02;0.47;;;20.60;39.90;;;;;;5132994;27;20039;-38
2021/04/07 03:23:34;;;;;;;0.95;0.60;;;20.60;40.00;;;;;;5116419;27;20043;-38
2021/04/07 03:26:00;;;;;;;0.80;0.40;;;20.60;40.00;;;;;;5114002;27;20040;-38
2021/04/07 03:28:27;;;;;;;0.77;0.47;;;20.60;40.00;;;;;;5132115;27;20048;-38
2021/04/07 03:30:54;;;;;;;0.50;0.50;;;20.60;40.00;;;;;;5098217;27;20043;-38
2021/04/07 03:33:28;;;;;;;0.80;0.50;;;20.60;40.00;;;;;;5131087;27;20444;-38
2021/04/07 03:35:57;;;;;;;1.05;0.40;;;20.60;40.00;;;;;;5133104;27;20043;-38
2021/04/07 03:38:24;;;;;;;0.70;0.50;;;20.60;40.00;;;;;;5132787;27;20053;-37
2021/04/07 03:40:52;;;;;;;0.73;0.50;;;20.60;40.00;;;;;;5123564;27;20384;-38
2021/04/07 03:43:21;;;;;;;0.60;0.50;;;20.60;40.00;;;;;;5121809;27;20046;-38
2021/04/07 03:45:50;;;;;;;0.55;0.38;;;20.60;40.00;;;;;;5127485;27;20047;-39
2021/04/07 03:48:19;;;;;;;0.50;0.32;;;20.60;40.00;;;;;;5118978;27;20044;-37
2021/04/07 03:50:47;;;;;;;0.98;0.40;;;20.60;40.00;;;;;;5116654;27;20039;-38
2021/04/07 03:53:14;;;;;;;0.68;0.40;;;20.60;40.00;;;;;;5116597;27;20444;-37
2021/04/07 03:55:42;;;;;;;0.47;0.30;;;20.60;40.00;;;;;;5133064;27;20081;-38
2021/04/07 03:58:09;;;;;;;0.70;0.30;;;20.60;40.00;;;;;;5132659;28;20043;-38
2021/04/07 04:00:35;;;;;;;0.52;0.35;;;20.60;40.00;;;;;;5117722;27;20044;-37
2021/04/07 04:03:02;;;;;;;0.80;0.40;;;20.60;40.00;;;;;;5117694;27;20044;-37
2021/04/07 04:05:29;;;;;;;1.55;0.60;;;20.60;40.00;;;;;;5122058;27;20047;-37
2021/04/07 04:07:55;;;;;;;0.90;0.50;;;20.60;40.00;;;;;;5121043;27;20054;-38
2021/04/07 04:10:22;;;;;;;0.77;0.45;;;20.60;40.00;;;;;;5120840;27;20078;-37
2021/04/07 04:12:49;;;;;;;0.30;0.30;;;20.60;40.00;;;;;;5120914;27;20140;-37
2021/04/07 04:15:19;;;;;;;0.65;0.40;;;20.60;40.00;;;;;;5104404;27;20051;-38
2021/04/07 04:17:46;;;;;;;1.05;0.70;;;20.60;40.00;;;;;;5116509;27;20411;-38
2021/04/07 04:20:14;;;;;;;0.70;0.57;;;20.60;40.00;;;;;;5118327;27;20043;-37
2021/04/07 04:22:41;;;;;;;0.52;0.50;;;20.60;40.00;;;;;;5119645;27;20468;-37
2021/04/07 04:25:11;;;;;;;0.75;0.32;;;20.60;40.00;;;;;;5118961;27;20039;-37
2021/04/07 04:27:39;;;;;;;0.80;0.57;;;20.60;40.00;;;;;;5137434;27;20078;-37
2021/04/07 04:30:08;;;;;;;0.70;0.50;;;20.60;40.00;;;;;;5126950;27;20545;-38
2021/04/07 04:32:35;;;;;;;0.60;0.40;;;20.60;40.00;;;;;;5118174;27;20054;-37
2021/04/07 04:35:01;;;;;;;0.32;0.32;;;20.60;40.00;;;;;;5136159;27;20047;-37
2021/04/07 04:37:28;;;;;;;0.32;0.30;;;20.60;40.00;;;;;;5136358;27;20093;-37
2021/04/07 04:39:55;;;;;;;0.50;0.30;;;20.60;40.00;;;;;;5116428;27;20043;-37
2021/04/07 04:42:21;;;;;;;0.80;0.47;;;20.60;40.00;;;;;;5118226;27;20043;-37
2021/04/07 04:44:48;;;;;;;0.40;0.30;;;20.60;40.00;;;;;;5134783;27;20092;-37
2021/04/07 04:47:15;;;;;;;0.63;0.47;;;20.60;40.00;;;;;;5134825;27;20108;-37
2021/04/07 04:49:52;;;;;;;;;;;20.60;40.00;;;;;;5119505;27;20043;-37
2021/04/07 04:52:20;;;;;;;0.73;0.32;;;20.60;40.00;;;;;;5135507;27;20000;-37
2021/04/07 04:54:48;;;;;;;0.30;0.30;;;20.60;40.00;;;;;;5135233;27;20058;-38
2021/04/07 04:57:17;;;;;;;0.57;0.45;;;20.60;40.00;;;;;;5134283;27;20049;-37
2021/04/07 04:59:47;;;;;;;0.50;0.50;;;20.60;40.00;;;;;;5134310;27;20086;-37
2021/04/07 05:02:14;;;;;;;0.75;0.45;;;20.60;40.00;;;;;;5135546;27;20062;-38
2021/04/07 05:04:40;;;;;;;1.40;0.50;;;20.60;40.00;;;;;;5134231;27;20479;-38
2021/04/07 05:07:07;;;;;;;0.90;0.40;;;20.60;40.00;;;;;;5118834;27;20051;-37
2021/04/07 05:09:34;;;;;;;0.98;0.50;;;20.60;40.00;;;;;;5134403;27;20054;-37
2021/04/07 05:12:01;;;;;;;0.40;0.40;;;20.60;40.00;;;;;;5135686;27;20097;-37
2021/04/07 05:14:27;;;;;;;0.50;0.40;;;20.60;40.00;;;;;;5133771;27;20058;-38
2021/04/07 05:16:58;;;;;;;0.55;0.50;;;20.60;40.00;;;;;;5135964;27;20402;-37
2021/04/07 05:19:27;;;;;;;0.73;0.40;;;20.60;40.00;;;;;;5117878;27;20082;-38
2021/04/07 05:21:54;;;;;;;0.40;0.30;;;20.60;40.00;;;;;;5133228;27;20447;-37
2021/04/07 05:24:21;;;;;;;0.85;0.40;;;20.60;40.00;;;;;;5116725;27;20047;-38
2021/04/07 05:26:49;;;;;;;0.43;0.40;;;20.60;40.00;;;;;;5134327;27;20047;-38
2021/04/07 05:29:16;;;;;;;0.50;0.30;;;20.60;40.00;;;;;;5130788;27;20152;-38
2021/04/07 05:31:42;;;;;;;0.82;0.47;;;20.60;40.00;;;;;;5117216;27;20095;-38
2021/04/07 05:34:09;;;;;;;1.45;0.40;;;20.60;40.00;;;;;;5136048;27;20054;-39
2021/04/07 05:36:35;;;;;;;1.13;0.40;;;20.60;40.20;;;;;;5133065;27;20092;-37
2021/04/07 05:39:02;;;;;;;0.40;0.40;;;20.60;40.20;;;;;;5132358;27;20043;-38
2021/04/07 05:41:29;;;;;;;3.65;0.50;;;20.60;40.20;;;;;;5119660;27;20043;-37
2021/04/07 05:43:56;;;;;;;2.15;0.40;;;20.60;40.20;;;;;;5135935;27;20035;-38
2021/04/07 05:46:22;;;;;;;4.15;0.65;;;20.60;40.20;;;;;;5117017;27;20044;-38
2021/04/07 05:48:49;;;;;;;5.97;0.82;;;20.60;40.20;;;;;;5118184;27;20104;-38
2021/04/07 05:51:16;;;;;;;7.63;1.05;;;20.60;40.30;;;;;;5112223;27;20514;-38
2021/04/07 05:53:42;;;;;;;8.23;0.75;;;20.60;40.30;;;;;;5119666;27;20566;-38
2021/04/07 05:56:22;;;;;;;4.00;0.43;;;20.60;40.30;;;;;;5134046;27;20100;-39
2021/04/07 05:58:49;;;;;;;10.75;0.93;;;20.60;40.40;;;;;;5132014;27;20039;-38
2021/04/07 06:01:16;;;;;;;7.60;0.98;;;20.60;40.40;;;;;;5131875;27;20047;-37
2021/04/07 06:03:42;;;;;;;9.00;0.95;;;20.60;40.40;;;;;;5128649;27;20441;-38
2021/04/07 06:06:10;;;;;;;6.70;0.70;;;20.60;40.40;;;;;;5115565;27;20464;-37
2021/04/07 06:08:37;;;;;;;5.68;0.63;;;20.60;40.40;;;;;;5131060;27;20036;-38
2021/04/07 06:11:04;;;;;;;8.38;0.88;;;20.60;40.40;;;;;;5118452;27;20127;-38
2021/04/07 06:13:31;;;;;;;8.93;0.75;;;20.60;40.50;;;;;;5117460;27;20125;-38
2021/04/07 06:15:58;;;;;;;7.75;1.05;;;20.60;40.40;;;;;;5115007;27;20097;-38
2021/04/07 06:18:25;;;;;;;10.57;0.90;;;20.70;40.70;;;;;;5133614;27;20464;-38
2021/04/07 06:20:51;;;;;;;7.57;1.05;;;20.70;40.90;;;;;;5132567;27;20444;-38
2021/04/07 06:23:19;;;;;;;11.63;1.00;;;20.70;40.90;;;;;;5115010;27;20059;-38
2021/04/07 06:25:46;;;;;;;7.38;0.60;;;20.70;40.90;;;;;;5132681;27;20086;-39
2021/04/07 06:28:15;;;;;;;10.60;0.70;;;20.70;41.00;;;;;;5116495;27;20043;-38
2021/04/07 06:30:45;;;;;;;2.67;0.63;;;20.70;41.10;;;;;;5130296;27;20394;-39
2021/04/07 06:33:18;;;;;;;5.63;0.80;;;20.70;41.20;;;;;;5128594;27;20047;-38
2021/04/07 06:35:50;;;;;;;6.50;0.63;;;20.70;41.30;;;;;;5133008;27;20057;-37
2021/04/07 06:38:18;;;;;;;2.17;0.60;;;20.70;41.40;;;;;;5134415;27;20043;-37
2021/04/07 06:40:46;;;;;;;4.72;0.75;;;20.70;41.40;;;;;;5132240;27;20043;-37
2021/04/07 06:43:15;;;;;;;13.02;0.80;;;20.70;41.40;;;;;;5134272;27;20074;-37
2021/04/07 06:45:42;;;;;;;6.57;0.80;;;20.70;41.60;;;;;;5113244;27;20096;-38
2021/04/07 06:48:10;;;;;;;3.13;0.60;;;20.70;41.70;;;;;;5113051;27;20047;-37
2021/04/07 06:50:40;;;;;;;8.90;0.80;;;20.70;41.90;;;;;;5131956;27;20054;-37
2021/04/07 06:53:08;;;;;;;1.85;0.85;;;20.70;42.10;;;;;;5119208;27;20047;-39
2021/04/07 06:55:37;;;;;;;7.40;0.60;;;20.80;42.30;;;;;;5107302;28;20112;-38
2021/04/07 06:58:06;;;;;;;2.25;0.63;;;20.80;42.50;;;;;;5115849;27;20043;-37
2021/04/07 07:00:39;;;;;;;5.25;0.70;;;20.80;42.60;;;;;;5117772;27;20154;-38
2021/04/07 07:03:12;;;;;;;1.05;0.60;;;20.80;42.50;;;;;;5109905;28;20047;-38
2021/04/07 07:05:47;;;;;;;3.35;1.42;;;20.80;42.00;;;;;;5121940;27;20039;-38
2021/04/07 07:08:16;;;;;;;8.52;1.45;;;20.80;39.30;;;;;;5133079;27;20096;-38
2021/04/07 07:10:47;;;;;;;2.40;1.38;;;20.70;38.20;;;;;;5133865;27;20039;-38
2021/04/07 07:13:18;;;;;;;3.47;1.50;;;20.70;37.40;;;;;;5130671;27;20072;-38
2021/04/07 07:15:45;;;;;;;5.05;2.10;;;20.60;36.30;;;;;;5132175;27;20050;-38
2021/04/07 07:18:20;;;;;;;6.60;2.05;;;20.60;35.70;;;;;;5133870;27;20495;-39
2021/04/07 07:20:47;;;;;;;9.52;2.40;;;20.60;35.50;;;;;;5114468;27;20047;-38
2021/04/07 07:23:28;;;;;;;4.45;1.65;;;20.50;35.10;;;;;;5113948;27;20050;-38
2021/04/07 07:26:01;;;;;;;5.03;1.70;;;20.50;35.60;;;;;;5115984;27;20143;-38
2021/04/07 07:28:59;;;;;;;3.60;1.88;;;20.50;35.70;;;;;;5132346;27;20047;-39
2021/04/07 07:31:30;;;;;;;3.80;1.58;;;20.50;35.90;;;;;;5130242;27;20100;-39
2021/04/07 07:33:59;;;;;;;2.50;1.65;;;20.50;36.10;;;;;;5132637;27;20410;-37
2021/04/07 07:36:28;;;;;;;2.63;1.58;;;20.40;36.30;;;;;;5130594;27;20047;-38
2021/04/07 07:38:57;;;;;;;4.25;1.95;;;20.50;36.40;;;;;;5130960;27;20043;-39
2021/04/07 07:41:30;;;;;;;4.75;1.67;;;20.50;36.50;;;;;;5130587;27;20419;-38
2021/04/07 07:44:16;;;;;;;5.22;1.45;;;20.50;36.70;;;;;;5130876;27;20123;-38
2021/04/07 07:46:46;;;;;;;5.03;1.60;;;20.50;36.80;;;;;;5130175;27;20055;-38
2021/04/07 07:49:18;;;;;;;4.82;1.67;;;20.50;36.90;;;;;;5131700;27;20505;-38
2021/04/07 07:51:49;;;;;;;2.70;1.50;;;20.50;37.00;;;;;;5129177;27;20051;-38
2021/04/07 07:54:19;;;;;;;6.13;1.20;;;20.50;37.10;;;;;;5131933;27;20054;-38
2021/04/07 07:56:46;;;;;;;3.47;1.98;;;20.50;37.10;;;;;;5132300;27;20043;-39
2021/04/07 07:59:23;;;;;;;6.68;2.60;;;20.50;37.20;;;;;;5131855;27;20051;-38
2021/04/07 08:01:50;;;;;;;7.55;3.80;;;20.50;37.30;;;;;;5130558;27;20039;-38
2021/04/07 08:04:18;;;;;;;13.20;4.57;;;20.50;37.40;;;;;;5132414;27;20046;-39
2021/04/07 08:06:46;;;;;;;9.35;4.82;;;20.50;37.40;;;;;;5131966;27;20088;-38
2021/04/07 08:09:14;;;;;;;16.13;7.35;;;20.60;37.60;;;;;;5131882;27;20555;-38
2021/04/07 08:11:45;;;;;;;15.35;8.43;;;20.60;37.60;;;;;;5131385;27;20058;-39
2021/04/07 08:14:17;;;;;;;18.48;8.98;;;20.60;37.70;;;;;;5131185;27;20054;-40
2021/04/07 08:16:45;;;;;;;18.55;9.20;;;20.60;37.80;;;;;;5130951;27;20128;-38
2021/04/07 08:19:14;;;;;;;19.33;9.43;;;20.60;37.80;;;;;;5132057;27;20072;-38
2021/04/07 08:21:43;;;;;;;19.38;9.75;;;20.60;37.90;;;;;;5130194;27;20039;-38
2021/04/07 08:24:12;;;;;;;21.98;11.30;;;20.60;37.90;;;;;;5130257;27;20559;-39
2021/04/07 08:26:41;;;;;;;19.55;11.02;;;20.60;38.00;;;;;;5129140;27;20096;-38
2021/04/07 08:29:09;;;;;;;21.48;11.38;;;20.60;38.00;;;;;;5128604;27;20114;-39
2021/04/07 08:31:38;;;;;;;22.83;10.93;;;20.60;38.00;;;;;;5117647;27;20487;-38
2021/04/07 08:34:10;;;;;;;21.35;10.85;;;20.60;38.10;;;;;;5130544;27;20091;-38
2021/04/07 08:36:41;;;;;;;26.63;11.73;;;20.70;38.20;;;;;;5115659;27;20043;-38
2021/04/07 08:39:10;;;;;;;23.08;11.82;;;20.70;38.20;;;;;;5131891;27;20054;-41
2021/04/07 08:41:38;;;;;;;23.08;12.10;;;20.70;38.30;;;;;;5130763;27;20047;-38
2021/04/07 08:44:06;;;;;;;22.45;11.90;;;20.70;38.30;;;;;;5131170;27;20054;-38
2021/04/07 08:46:45;;;;;;;24.15;12.20;;;20.70;38.40;;;;;;5130659;27;20108;-38
2021/04/07 08:49:33;;;;;;;23.27;12.05;;;20.70;38.40;;;;;;5130029;27;20043;-38
2021/04/07 08:52:16;;;;;;;24.35;11.50;;;20.70;38.50;;;;;;5133861;27;20571;-38
2021/04/07 08:54:48;;;;;;;23.05;12.73;;;20.70;38.50;;;;;;5134305;27;20054;-38
2021/04/07 08:57:29;;;;;;;24.95;12.88;;;20.70;38.50;;;;;;5135289;27;20478;-38
2021/04/07 08:59:58;;;;;;;24.13;12.18;;;20.70;38.60;;;;;;5122165;27;20040;-39
2021/04/07 09:02:26;;;;;;;22.60;12.00;;;20.70;38.60;;;;;;5130384;27;20122;-38
2021/04/07 09:05:07;;;;;;;23.55;12.30;;;20.70;38.70;;;;;;5125277;27;20573;-39
2021/04/07 09:07:44;;;;;;;24.15;11.23;;;20.70;38.70;;;;;;5126028;27;20407;-38
2021/04/07 09:10:12;;;;;;;25.17;12.20;;;20.70;38.80;;;;;;5127996;27;20161;-40
2021/04/07 09:12:46;;;;;;;23.77;12.38;;;20.70;38.80;;;;;;5125608;27;20537;-38
2021/04/07 09:15:20;;;;;;;23.90;12.30;;;20.70;38.90;;;;;;5134832;27;20042;-38
2021/04/07 09:17:51;;;;;;;24.17;12.38;;;20.70;38.90;;;;;;5117826;27;20058;-38
2021/04/07 09:20:39;;;;;;;22.67;12.02;;;20.70;38.90;;;;;;5132122;27;20035;-38
2021/04/07 09:23:15;;;;;;;26.25;12.90;;;20.70;39.00;;;;;;5130513;27;20127;-39
2021/04/07 09:25:48;;;;;;;23.73;11.75;;;20.70;39.00;;;;;;5119559;27;20092;-39
2021/04/07 09:28:15;;;;;;;22.52;11.52;;;20.70;39.10;;;;;;5120486;27;20042;-39
2021/04/07 09:30:48;;;;;;;27.52;12.65;;;20.70;39.10;;;;;;5123685;27;20100;-38
2021/04/07 09:33:18;;;;;;;22.05;10.98;;;20.70;39.20;;;;;;5118191;27;20083;-38
2021/04/07 09:36:00;;;;;;;22.98;11.57;;;20.70;39.20;;;;;;5134432;27;20082;-39
2021/04/07 09:38:30;;;;;;;24.83;12.13;;;20.80;39.40;;;;;;5132705;27;20072;-39
2021/04/07 09:41:14;;;;;;;24.52;11.60;;;20.70;39.30;;;;;;5133383;27;20054;-38
2021/04/07 09:43:42;;;;;;;23.35;10.93;;;20.70;39.40;;;;;;5133850;27;20074;-39
2021/04/07 09:46:09;;;;;;;18.85;10.80;;;20.70;39.50;;;;;;5134797;27;20047;-38
2021/04/07 09:48:40;;;;;;;22.60;10.60;;;20.70;39.50;;;;;;5134349;27;20134;-39
2021/04/07 09:51:30;;;;;;;26.23;10.93;;;20.80;39.70;;;;;;5133530;27;20051;-38
2021/04/07 09:54:07;;;;;;;21.58;10.80;;;20.70;39.60;;;;;;5115590;27;20079;-40
2021/04/07 09:56:59;;;;;;;23.35;10.75;;;20.70;39.60;;;;;;5133423;27;20047;-39
2021/04/07 09:59:38;;;;;;;21.15;9.88;;;20.70;39.70;;;;;;5131968;27;20383;-39
2021/04/07 10:02:15;;;;;;;19.70;9.27;;;20.70;39.70;;;;;;5132385;27;20521;-39
2021/04/07 10:04:45;;;;;;;18.00;10.00;;;20.70;39.70;;;;;;5133213;27;20122;-38
2021/04/07 10:07:16;;;;;;;19.75;10.27;;;20.70;39.70;;;;;;5114667;27;20051;-38
2021/04/07 10:09:48;;;;;;;17.73;9.48;;;20.70;39.70;;;;;;5132901;27;20078;-38
2021/04/07 10:12:17;;;;;;;20.83;10.45;;;20.70;39.70;;;;;;5115528;27;20108;-38
2021/04/07 10:14:58;;;;;;;23.95;10.18;;;20.70;39.70;;;;;;5132976;27;20534;-38
2021/04/07 10:17:27;;;;;;;19.38;10.38;;;20.70;39.70;;;;;;5131902;27;20043;-38
2021/04/07 10:19:55;;;;;;;20.75;10.32;;;20.80;39.80;;;;;;5129329;27;20039;-39
2021/04/07 10:22:26;;;;;;;20.23;10.73;;;20.70;39.70;;;;;;5119035;27;20040;-38
2021/04/07 10:25:00;;;;;;;20.02;10.45;;;20.70;39.70;;;;;;5134017;27;20054;-38
2021/04/07 10:27:28;;;;;;;18.48;9.73;;;20.70;39.70;;;;;;5133140;27;20398;-38
2021/04/07 10:30:06;;;;;;;20.73;10.75;;;20.70;39.70;;;;;;5129187;27;20407;-38
2021/04/07 10:32:41;;;;;;;18.08;9.52;;;20.70;39.70;;;;;;5133988;27;20074;-38
2021/04/07 10:35:18;;;;;;;21.23;10.25;;;20.70;39.80;;;;;;5132654;27;20051;-38
2021/04/07 10:38:28;;;;;;;19.35;9.32;;;20.70;39.70;;;;;;5132665;27;20043;-38
2021/04/07 10:40:59;;;;;;;19.23;9.40;;;20.70;39.70;;;;;;5033336;28;20037;-38
2021/04/07 10:43:35;;;;;;;19.65;9.50;;;20.70;39.70;;;;;;5033265;28;20053;-38
2021/04/07 10:46:04;;;;;;;18.38;9.73;;;20.70;39.70;;;;;;5032362;28;20540;-38
2021/04/07 10:48:37;;;;;;;18.85;9.65;;;20.70;39.70;;;;;;5047575;28;20061;-38
2021/04/07 10:51:06;;;;;;;18.00;9.23;;;20.70;39.70;;;;;;5049780;28;20056;-38
2021/04/07 10:53:37;;;;;;;17.52;8.80;;;20.70;39.70;;;;;;5050565;28;20056;-38
2021/04/07 10:56:22;;;;;;;17.73;9.02;;;20.70;39.70;;;;;;5049098;28;20053;-38
2021/04/07 10:59:11;;;;;;;18.88;9.77;;;20.80;39.70;;;;;;5050233;28;20049;-38
2021/04/07 11:01:39;;;;;;;18.73;9.13;;;20.80;39.70;;;;;;5050095;28;20041;-38
2021/04/07 11:04:14;;;;;;;17.02;8.70;;;20.80;39.70;;;;;;5037720;28;20456;-38
2021/04/07 11:06:41;;;;;;;18.88;9.10;;;20.70;39.70;;;;;;5044747;28;20493;-37
2021/04/07 11:09:12;;;;;;;20.08;9.32;;;20.70;39.70;;;;;;5050022;28;20452;-38
2021/04/07 11:11:42;;;;;;;23.13;9.18;;;20.80;39.70;;;;;;5084708;27;20108;-37
2021/04/07 11:14:11;;;;;;;18.75;9.10;;;20.70;39.70;;;;;;5116910;27;20514;-37
2021/04/07 11:16:38;;;;;;;17.10;8.55;;;20.70;39.70;;;;;;5118001;27;20046;-38
2021/04/07 11:19:17;;;;;;;15.80;8.40;;;20.70;39.70;;;;;;5119689;27;20043;-38
2021/04/07 11:21:44;;;;;;;18.25;8.65;;;20.70;39.70;;;;;;5132529;27;20049;-38
2021/04/07 11:24:11;;;;;;;17.13;9.00;;;20.70;39.80;;;;;;5117160;27;20043;-37
2021/04/07 11:26:38;;;;;;;15.57;8.38;;;20.70;40.40;;;;;;5116330;27;20411;-37
2021/04/07 11:29:06;;;;;;;17.45;8.55;;;20.70;39.80;;;;;;5113976;27;20048;-38
2021/04/07 11:31:34;;;;;;;18.05;8.85;;;20.70;39.80;;;;;;5133580;27;20567;-37
2021/04/07 11:34:09;;;;;;;17.83;8.50;;;20.70;39.80;;;;;;5113682;27;20047;-38
2021/04/07 11:36:48;;;;;;;17.42;8.13;;;20.70;39.80;;;;;;5119048;27;20052;-37
2021/04/07 11:40:01;;;;;;;17.05;8.75;;;20.70;39.80;;;;;;5118035;27;20082;-37
2021/04/07 11:42:16;;;;;;;13.55;7.80;;;20.70;39.80;;;;;;5112058;27;20079;-38
2021/04/07 11:44:43;;;;;;;15.32;8.25;;;20.70;39.80;;;;;;5130316;27;20047;-37
2021/04/07 11:47:09;;;;;;;16.73;8.35;;;20.70;39.70;;;;;;5111864;28;20571;-38
2021/04/07 11:49:36;;;;;;;15.20;7.85;;;20.70;39.80;;;;;;5127206;27;20053;-38
2021/04/07 11:52:04;;;;;;;15.15;8.13;;;20.70;39.70;;;;;;5132412;27;20108;-38
2021/04/07 11:54:31;;;;;;;16.98;8.43;;;20.70;39.80;;;;;;5130721;27;20100;-38
2021/04/07 11:56:57;;;;;;;15.32;8.63;;;20.70;39.80;;;;;;5113622;27;20498;-38
2021/04/07 11:59:25;;;;;;;17.63;8.95;;;20.70;40.40;;;;;;5130855;27;20039;-38
2021/04/07 12:01:58;;;;;;;17.25;7.72;;;20.70;39.80;;;;;;5133071;27;20107;-38
2021/04/07 12:04:28;;;;;;;18.67;7.53;;;20.70;39.80;;;;;;5131420;27;20043;-39
2021/04/07 12:06:58;;;;;;;12.95;7.53;;;20.70;39.70;;;;;;5130924;28;20083;-38
2021/04/07 12:09:25;;;;;;;14.20;8.05;;;20.70;39.80;;;;;;5132269;27;20046;-38
2021/04/07 12:11:51;;;;;;;14.13;7.97;;;20.70;39.80;;;;;;5130890;27;20509;-38
2021/04/07 12:14:18;;;;;;;16.10;8.02;;;20.70;39.80;;;;;;5130280;27;20054;-39
2021/04/07 12:16:45;;;;;;;16.80;8.02;;;20.70;39.80;;;;;;5132635;27;20055;-38
2021/04/07 12:19:12;;;;;;;16.00;8.20;;;20.70;39.80;;;;;;5113662;28;20104;-38
2021/04/07 12:21:40;;;;;;;15.38;7.53;;;20.70;39.80;;;;;;5129729;27;20096;-38
2021/04/07 12:24:08;;;;;;;15.18;7.57;;;20.70;39.80;;;;;;5132113;27;20562;-38
2021/04/07 12:26:35;;;;;;;14.57;8.27;;;20.70;40.40;;;;;;5136236;27;20431;-38
2021/04/07 12:29:03;;;;;;;13.40;7.43;;;20.70;39.90;;;;;;5134798;27;20072;-38
2021/04/07 12:31:29;;;;;;;14.25;7.43;;;20.70;39.80;;;;;;5116524;27;20048;-39
2021/04/07 12:33:58;;;;;;;16.17;8.10;;;20.70;39.90;;;;;;5134959;27;20047;-38
2021/04/07 12:36:27;;;;;;;15.68;7.45;;;20.70;39.90;;;;;;5135632;27;20043;-38
2021/04/07 12:38:59;;;;;;;13.75;7.38;;;20.70;39.90;;;;;;5135164;27;20430;-38
2021/04/07 12:41:45;;;;;;;12.27;7.20;;;20.60;39.80;;;;;;5133686;27;20047;-38
2021/04/07 12:44:12;;;;;;;14.35;7.88;;;20.70;39.90;;;;;;5134912;27;20039;-38
2021/04/07 12:46:38;;;;;;;14.27;7.68;;;20.70;39.90;;;;;;5134556;27;20047;-38
2021/04/07 12:49:05;;;;;;;14.32;7.35;;;20.70;39.90;;;;;;5134502;27;20047;-38
2021/04/07 12:51:37;;;;;;;14.55;7.70;;;20.70;39.90;;;;;;5135900;27;20058;-38
2021/04/07 12:54:04;;;;;;;16.35;7.38;;;20.70;39.90;;;;;;5134268;27;20058;-38